sensor_id;sensor_type;location;lat;lon;timestamp;P1;durP1;ratioP1;P2;durP2;ratioP2
61907;SDS011;47864;52.526;19.672;2024-01-30T00:01:41;101.25;;;53.70;;
61907;SDS011;47864;52.526;19.672;2024-01-30T00:03:43;102.07;;;52.00;;
61907;SDS011;47864;52.526;19.672;2024-01-30T00:05:44;96.68;;;51.45;;
61907;SDS011;47864;52.526;19.672;2024-01-30T00:07:46;103.47;;;54.55;;
61907;SDS011;47864;52.526;19.672;2024-01-30T00:09:48;94.60;;;50.83;;
61907;SDS011;47864;52.526;19.672;2024-01-30T00:11:50;104.88;;;53.13;;
61907;SDS011;47864;52.526;19.672;2024-01-30T00:13:52;112.28;;;54.20;;
61907;SDS011;47864;52.526;19.672;2024-01-30T00:15:53;111.00;;;58.63;;
61907;SDS011;47864;52.526;19.672;2024-01-30T00:17:55;105.30;;;52.63;;
61907;SDS011;47864;52.526;19.672;2024-01-30T00:19:57;100.43;;;51.83;;
61907;SDS011;47864;52.526;19.672;2024-01-30T00:21:59;99.15;;;50.28;;
61907;SDS011;47864;52.526;19.672;2024-01-30T00:24:01;91.50;;;49.53;;
61907;SDS011;47864;52.526;19.672;2024-01-30T00:26:02;93.72;;;50.85;;
61907;SDS011;47864;52.526;19.672;2024-01-30T00:28:04;88.43;;;50.65;;
61907;SDS011;47864;52.526;19.672;2024-01-30T00:30:06;107.05;;;53.53;;
61907;SDS011;47864;52.526;19.672;2024-01-30T00:32:08;109.35;;;54.03;;
61907;SDS011;47864;52.526;19.672;2024-01-30T00:34:10;100.15;;;54.28;;
61907;SDS011;47864;52.526;19.672;2024-01-30T00:36:13;107.05;;;53.10;;
61907;SDS011;47864;52.526;19.672;2024-01-30T00:38:15;100.45;;;51.95;;
61907;SDS011;47864;52.526;19.672;2024-01-30T00:40:17;111.68;;;54.78;;
61907;SDS011;47864;52.526;19.672;2024-01-30T00:42:18;109.50;;;58.33;;
61907;SDS011;47864;52.526;19.672;2024-01-30T00:44:20;111.13;;;56.42;;
61907;SDS011;47864;52.526;19.672;2024-01-30T00:46:22;112.70;;;56.15;;
61907;SDS011;47864;52.526;19.672;2024-01-30T00:48:24;113.13;;;58.38;;
61907;SDS011;47864;52.526;19.672;2024-01-30T00:50:25;105.25;;;54.25;;
61907;SDS011;47864;52.526;19.672;2024-01-30T00:52:27;101.22;;;53.92;;
61907;SDS011;47864;52.526;19.672;2024-01-30T00:54:29;117.88;;;57.35;;
61907;SDS011;47864;52.526;19.672;2024-01-30T00:56:30;109.53;;;53.67;;
61907;SDS011;47864;52.526;19.672;2024-01-30T00:58:32;157.13;;;100.82;;
61907;SDS011;47864;52.526;19.672;2024-01-30T01:00:33;123.55;;;61.60;;
61907;SDS011;47864;52.526;19.672;2024-01-30T01:02:35;118.45;;;58.92;;
61907;SDS011;47864;52.526;19.672;2024-01-30T01:04:37;110.93;;;57.50;;
61907;SDS011;47864;52.526;19.672;2024-01-30T01:08:47;105.15;;;56.65;;
61907;SDS011;47864;52.526;19.672;2024-01-30T01:10:48;111.20;;;59.33;;
61907;SDS011;47864;52.526;19.672;2024-01-30T01:12:50;109.10;;;55.53;;
61907;SDS011;47864;52.526;19.672;2024-01-30T01:14:52;100.07;;;53.80;;
61907;SDS011;47864;52.526;19.672;2024-01-30T01:16:54;91.15;;;50.25;;
61907;SDS011;47864;52.526;19.672;2024-01-30T01:18:56;96.75;;;50.88;;
61907;SDS011;47864;52.526;19.672;2024-01-30T01:20:58;95.95;;;49.92;;
61907;SDS011;47864;52.526;19.672;2024-01-30T01:22:59;93.75;;;49.17;;
61907;SDS011;47864;52.526;19.672;2024-01-30T01:25:01;87.32;;;47.08;;
61907;SDS011;47864;52.526;19.672;2024-01-30T01:27:03;89.53;;;45.97;;
61907;SDS011;47864;52.526;19.672;2024-01-30T01:29:05;85.22;;;46.30;;
61907;SDS011;47864;52.526;19.672;2024-01-30T01:31:07;90.43;;;48.67;;
61907;SDS011;47864;52.526;19.672;2024-01-30T01:33:09;94.75;;;50.05;;
61907;SDS011;47864;52.526;19.672;2024-01-30T01:35:11;94.95;;;49.13;;
61907;SDS011;47864;52.526;19.672;2024-01-30T01:37:13;97.68;;;48.83;;
61907;SDS011;47864;52.526;19.672;2024-01-30T01:39:15;87.10;;;46.42;;
61907;SDS011;47864;52.526;19.672;2024-01-30T01:41:17;99.20;;;48.40;;
61907;SDS011;47864;52.526;19.672;2024-01-30T01:43:19;96.53;;;50.38;;
61907;SDS011;47864;52.526;19.672;2024-01-30T01:45:21;103.68;;;51.30;;
61907;SDS011;47864;52.526;19.672;2024-01-30T01:47:23;101.22;;;51.70;;
61907;SDS011;47864;52.526;19.672;2024-01-30T01:49:25;101.88;;;52.67;;
61907;SDS011;47864;52.526;19.672;2024-01-30T01:51:29;104.85;;;51.42;;
61907;SDS011;47864;52.526;19.672;2024-01-30T01:53:32;113.45;;;56.85;;
61907;SDS011;47864;52.526;19.672;2024-01-30T01:55:34;113.85;;;57.38;;
61907;SDS011;47864;52.526;19.672;2024-01-30T01:57:36;108.57;;;55.95;;
61907;SDS011;47864;52.526;19.672;2024-01-30T01:59:39;99.25;;;52.45;;
61907;SDS011;47864;52.526;19.672;2024-01-30T02:01:42;99.97;;;52.20;;
61907;SDS011;47864;52.526;19.672;2024-01-30T02:03:44;104.03;;;51.88;;
61907;SDS011;47864;52.526;19.672;2024-01-30T02:05:47;115.53;;;57.22;;
61907;SDS011;47864;52.526;19.672;2024-01-30T02:07:49;112.78;;;56.10;;
61907;SDS011;47864;52.526;19.672;2024-01-30T02:09:51;128.38;;;61.08;;
61907;SDS011;47864;52.526;19.672;2024-01-30T02:11:53;127.88;;;60.80;;
61907;SDS011;47864;52.526;19.672;2024-01-30T02:13:55;130.90;;;60.63;;
61907;SDS011;47864;52.526;19.672;2024-01-30T02:15:57;111.07;;;57.08;;
61907;SDS011;47864;52.526;19.672;2024-01-30T02:17:59;117.18;;;57.38;;
61907;SDS011;47864;52.526;19.672;2024-01-30T02:20:01;113.47;;;56.83;;
61907;SDS011;47864;52.526;19.672;2024-01-30T02:22:03;104.63;;;53.50;;
61907;SDS011;47864;52.526;19.672;2024-01-30T02:24:05;109.63;;;54.13;;
61907;SDS011;47864;52.526;19.672;2024-01-30T02:26:07;109.90;;;55.13;;
61907;SDS011;47864;52.526;19.672;2024-01-30T02:28:09;110.47;;;55.88;;
61907;SDS011;47864;52.526;19.672;2024-01-30T02:30:15;103.28;;;52.83;;
61907;SDS011;47864;52.526;19.672;2024-01-30T02:32:16;108.80;;;54.83;;
61907;SDS011;47864;52.526;19.672;2024-01-30T02:34:18;110.72;;;54.33;;
61907;SDS011;47864;52.526;19.672;2024-01-30T02:36:20;110.43;;;53.42;;
61907;SDS011;47864;52.526;19.672;2024-01-30T02:38:22;103.93;;;52.97;;
61907;SDS011;47864;52.526;19.672;2024-01-30T02:40:23;105.95;;;53.17;;
61907;SDS011;47864;52.526;19.672;2024-01-30T02:42:25;104.78;;;54.58;;
61907;SDS011;47864;52.526;19.672;2024-01-30T02:44:27;111.15;;;55.30;;
61907;SDS011;47864;52.526;19.672;2024-01-30T02:46:28;111.95;;;52.58;;
61907;SDS011;47864;52.526;19.672;2024-01-30T02:48:31;109.13;;;52.83;;
61907;SDS011;47864;52.526;19.672;2024-01-30T02:50:32;103.22;;;52.15;;
61907;SDS011;47864;52.526;19.672;2024-01-30T02:52:34;101.40;;;53.15;;
61907;SDS011;47864;52.526;19.672;2024-01-30T02:54:35;105.82;;;52.97;;
61907;SDS011;47864;52.526;19.672;2024-01-30T02:56:37;111.95;;;56.28;;
61907;SDS011;47864;52.526;19.672;2024-01-30T02:58:39;103.55;;;54.20;;
61907;SDS011;47864;52.526;19.672;2024-01-30T03:00:41;129.27;;;61.42;;
61907;SDS011;47864;52.526;19.672;2024-01-30T03:02:43;110.88;;;56.70;;
61907;SDS011;47864;52.526;19.672;2024-01-30T03:04:44;136.15;;;62.67;;
61907;SDS011;47864;52.526;19.672;2024-01-30T03:06:46;151.65;;;67.80;;
61907;SDS011;47864;52.526;19.672;2024-01-30T03:08:49;126.15;;;60.80;;
61907;SDS011;47864;52.526;19.672;2024-01-30T03:10:50;125.70;;;59.65;;
61907;SDS011;47864;52.526;19.672;2024-01-30T03:12:52;117.80;;;59.63;;
61907;SDS011;47864;52.526;19.672;2024-01-30T03:14:54;122.03;;;59.00;;
61907;SDS011;47864;52.526;19.672;2024-01-30T03:16:55;124.15;;;59.35;;
61907;SDS011;47864;52.526;19.672;2024-01-30T03:18:57;112.47;;;57.10;;
61907;SDS011;47864;52.526;19.672;2024-01-30T03:20:59;118.30;;;58.20;;
61907;SDS011;47864;52.526;19.672;2024-01-30T03:23:01;116.35;;;58.97;;
61907;SDS011;47864;52.526;19.672;2024-01-30T03:25:02;110.07;;;57.00;;
61907;SDS011;47864;52.526;19.672;2024-01-30T03:27:04;110.30;;;57.45;;
61907;SDS011;47864;52.526;19.672;2024-01-30T03:29:06;112.65;;;57.08;;
61907;SDS011;47864;52.526;19.672;2024-01-30T03:31:08;113.38;;;55.70;;
61907;SDS011;47864;52.526;19.672;2024-01-30T03:33:10;111.10;;;56.38;;
61907;SDS011;47864;52.526;19.672;2024-01-30T03:35:11;100.25;;;54.97;;
61907;SDS011;47864;52.526;19.672;2024-01-30T03:37:13;110.18;;;57.03;;
61907;SDS011;47864;52.526;19.672;2024-01-30T03:39:15;107.32;;;55.05;;
61907;SDS011;47864;52.526;19.672;2024-01-30T03:41:16;107.75;;;56.75;;
61907;SDS011;47864;52.526;19.672;2024-01-30T03:43:18;111.18;;;57.42;;
61907;SDS011;47864;52.526;19.672;2024-01-30T03:45:20;118.18;;;57.58;;
61907;SDS011;47864;52.526;19.672;2024-01-30T03:47:21;111.57;;;56.10;;
61907;SDS011;47864;52.526;19.672;2024-01-30T03:49:23;102.30;;;55.42;;
61907;SDS011;47864;52.526;19.672;2024-01-30T03:51:25;110.72;;;54.13;;
61907;SDS011;47864;52.526;19.672;2024-01-30T03:53:27;149.52;;;79.22;;
61907;SDS011;47864;52.526;19.672;2024-01-30T03:55:28;166.20;;;86.78;;
61907;SDS011;47864;52.526;19.672;2024-01-30T03:57:30;162.60;;;90.03;;
61907;SDS011;47864;52.526;19.672;2024-01-30T03:59:32;148.10;;;80.13;;
61907;SDS011;47864;52.526;19.672;2024-01-30T04:01:34;150.05;;;80.82;;
61907;SDS011;47864;52.526;19.672;2024-01-30T04:03:35;129.30;;;72.13;;
61907;SDS011;47864;52.526;19.672;2024-01-30T04:05:37;117.05;;;61.00;;
61907;SDS011;47864;52.526;19.672;2024-01-30T04:07:42;129.35;;;70.25;;
61907;SDS011;47864;52.526;19.672;2024-01-30T04:09:44;123.32;;;66.70;;
61907;SDS011;47864;52.526;19.672;2024-01-30T04:11:45;118.00;;;63.75;;
61907;SDS011;47864;52.526;19.672;2024-01-30T04:13:47;111.70;;;61.53;;
61907;SDS011;47864;52.526;19.672;2024-01-30T04:15:48;118.20;;;62.15;;
61907;SDS011;47864;52.526;19.672;2024-01-30T04:17:50;109.03;;;59.25;;
61907;SDS011;47864;52.526;19.672;2024-01-30T04:19:52;94.80;;;53.72;;
61907;SDS011;47864;52.526;19.672;2024-01-30T04:21:54;101.30;;;52.45;;
61907;SDS011;47864;52.526;19.672;2024-01-30T04:23:55;91.40;;;50.45;;
61907;SDS011;47864;52.526;19.672;2024-01-30T04:25:59;90.55;;;48.90;;
61907;SDS011;47864;52.526;19.672;2024-01-30T04:28:00;97.78;;;51.30;;
61907;SDS011;47864;52.526;19.672;2024-01-30T04:30:02;88.55;;;50.35;;
61907;SDS011;47864;52.526;19.672;2024-01-30T04:32:04;96.05;;;52.53;;
61907;SDS011;47864;52.526;19.672;2024-01-30T04:34:06;104.97;;;55.00;;
61907;SDS011;47864;52.526;19.672;2024-01-30T04:36:08;94.43;;;50.13;;
61907;SDS011;47864;52.526;19.672;2024-01-30T04:38:10;98.22;;;52.65;;
61907;SDS011;47864;52.526;19.672;2024-01-30T04:40:11;99.60;;;52.50;;
61907;SDS011;47864;52.526;19.672;2024-01-30T04:42:13;108.43;;;56.92;;
61907;SDS011;47864;52.526;19.672;2024-01-30T04:44:15;118.30;;;58.38;;
61907;SDS011;47864;52.526;19.672;2024-01-30T04:46:17;129.63;;;67.22;;
61907;SDS011;47864;52.526;19.672;2024-01-30T04:48:19;123.82;;;64.72;;
61907;SDS011;47864;52.526;19.672;2024-01-30T04:50:20;127.28;;;66.40;;
61907;SDS011;47864;52.526;19.672;2024-01-30T04:52:22;115.72;;;61.33;;
61907;SDS011;47864;52.526;19.672;2024-01-30T04:54:24;104.88;;;56.28;;
61907;SDS011;47864;52.526;19.672;2024-01-30T04:56:25;103.30;;;54.33;;
61907;SDS011;47864;52.526;19.672;2024-01-30T04:58:27;97.97;;;53.35;;
61907;SDS011;47864;52.526;19.672;2024-01-30T05:00:29;102.95;;;55.28;;
61907;SDS011;47864;52.526;19.672;2024-01-30T05:02:31;113.78;;;58.25;;
61907;SDS011;47864;52.526;19.672;2024-01-30T05:04:32;119.40;;;61.45;;
61907;SDS011;47864;52.526;19.672;2024-01-30T05:06:34;112.38;;;57.92;;
61907;SDS011;47864;52.526;19.672;2024-01-30T05:08:36;111.95;;;57.00;;
61907;SDS011;47864;52.526;19.672;2024-01-30T05:10:37;113.90;;;57.92;;
61907;SDS011;47864;52.526;19.672;2024-01-30T05:12:39;114.10;;;58.80;;
61907;SDS011;47864;52.526;19.672;2024-01-30T05:14:41;137.90;;;63.30;;
61907;SDS011;47864;52.526;19.672;2024-01-30T05:16:43;148.88;;;69.10;;
61907;SDS011;47864;52.526;19.672;2024-01-30T05:18:44;123.00;;;60.72;;
61907;SDS011;47864;52.526;19.672;2024-01-30T05:20:47;129.68;;;62.42;;
61907;SDS011;47864;52.526;19.672;2024-01-30T05:22:48;128.00;;;63.30;;
61907;SDS011;47864;52.526;19.672;2024-01-30T05:24:50;136.45;;;66.40;;
61907;SDS011;47864;52.526;19.672;2024-01-30T05:26:51;138.23;;;66.25;;
61907;SDS011;47864;52.526;19.672;2024-01-30T05:28:53;130.00;;;63.00;;
61907;SDS011;47864;52.526;19.672;2024-01-30T05:30:55;152.38;;;67.65;;
61907;SDS011;47864;52.526;19.672;2024-01-30T05:32:58;139.10;;;65.25;;
61907;SDS011;47864;52.526;19.672;2024-01-30T05:34:59;155.77;;;71.88;;
61907;SDS011;47864;52.526;19.672;2024-01-30T05:37:01;129.45;;;64.68;;
61907;SDS011;47864;52.526;19.672;2024-01-30T05:39:03;122.30;;;60.17;;
61907;SDS011;47864;52.526;19.672;2024-01-30T05:41:09;123.93;;;64.00;;
61907;SDS011;47864;52.526;19.672;2024-01-30T05:43:10;124.63;;;66.07;;
61907;SDS011;47864;52.526;19.672;2024-01-30T05:45:12;153.73;;;89.93;;
61907;SDS011;47864;52.526;19.672;2024-01-30T05:47:14;160.68;;;93.60;;
61907;SDS011;47864;52.526;19.672;2024-01-30T05:49:19;139.98;;;83.43;;
61907;SDS011;47864;52.526;19.672;2024-01-30T05:51:34;126.05;;;68.45;;
61907;SDS011;47864;52.526;19.672;2024-01-30T05:53:36;133.27;;;71.82;;
61907;SDS011;47864;52.526;19.672;2024-01-30T05:55:37;125.05;;;67.60;;
61907;SDS011;47864;52.526;19.672;2024-01-30T05:57:39;99.40;;;57.20;;
61907;SDS011;47864;52.526;19.672;2024-01-30T05:59:41;96.22;;;54.90;;
61907;SDS011;47864;52.526;19.672;2024-01-30T06:01:46;101.07;;;57.00;;
61907;SDS011;47864;52.526;19.672;2024-01-30T06:03:48;96.85;;;56.83;;
61907;SDS011;47864;52.526;19.672;2024-01-30T06:05:50;95.75;;;56.42;;
61907;SDS011;47864;52.526;19.672;2024-01-30T06:07:51;93.57;;;53.97;;
61907;SDS011;47864;52.526;19.672;2024-01-30T06:09:53;102.18;;;58.22;;
61907;SDS011;47864;52.526;19.672;2024-01-30T06:11:55;102.13;;;58.50;;
61907;SDS011;47864;52.526;19.672;2024-01-30T06:13:57;93.32;;;55.33;;
61907;SDS011;47864;52.526;19.672;2024-01-30T06:15:58;96.03;;;56.00;;
61907;SDS011;47864;52.526;19.672;2024-01-30T06:18:00;91.75;;;49.42;;
61907;SDS011;47864;52.526;19.672;2024-01-30T06:20:02;99.28;;;53.00;;
61907;SDS011;47864;52.526;19.672;2024-01-30T06:22:04;99.85;;;53.83;;
61907;SDS011;47864;52.526;19.672;2024-01-30T06:24:06;98.88;;;52.38;;
61907;SDS011;47864;52.526;19.672;2024-01-30T06:26:08;106.15;;;57.17;;
61907;SDS011;47864;52.526;19.672;2024-01-30T06:28:10;115.53;;;57.08;;
61907;SDS011;47864;52.526;19.672;2024-01-30T06:30:12;119.30;;;56.42;;
61907;SDS011;47864;52.526;19.672;2024-01-30T06:32:13;110.25;;;56.97;;
61907;SDS011;47864;52.526;19.672;2024-01-30T06:34:15;106.63;;;53.60;;
61907;SDS011;47864;52.526;19.672;2024-01-30T06:36:17;105.10;;;54.03;;
61907;SDS011;47864;52.526;19.672;2024-01-30T06:38:19;104.13;;;50.97;;
61907;SDS011;47864;52.526;19.672;2024-01-30T06:40:21;92.00;;;47.55;;
61907;SDS011;47864;52.526;19.672;2024-01-30T06:42:22;95.70;;;48.35;;
61907;SDS011;47864;52.526;19.672;2024-01-30T06:44:24;89.53;;;48.13;;
61907;SDS011;47864;52.526;19.672;2024-01-30T06:46:26;86.15;;;49.22;;
61907;SDS011;47864;52.526;19.672;2024-01-30T06:48:28;86.22;;;48.22;;
61907;SDS011;47864;52.526;19.672;2024-01-30T06:50:29;86.60;;;48.80;;
61907;SDS011;47864;52.526;19.672;2024-01-30T06:52:31;82.82;;;46.65;;
61907;SDS011;47864;52.526;19.672;2024-01-30T06:54:33;81.07;;;46.80;;
61907;SDS011;47864;52.526;19.672;2024-01-30T06:56:35;83.93;;;45.45;;
61907;SDS011;47864;52.526;19.672;2024-01-30T06:58:36;72.50;;;43.08;;
61907;SDS011;47864;52.526;19.672;2024-01-30T07:00:38;72.90;;;42.63;;
61907;SDS011;47864;52.526;19.672;2024-01-30T07:02:40;80.65;;;47.00;;
61907;SDS011;47864;52.526;19.672;2024-01-30T07:04:42;92.97;;;51.45;;
61907;SDS011;47864;52.526;19.672;2024-01-30T07:06:47;99.28;;;55.13;;
61907;SDS011;47864;52.526;19.672;2024-01-30T07:08:49;102.10;;;55.30;;
61907;SDS011;47864;52.526;19.672;2024-01-30T07:10:51;109.07;;;57.35;;
61907;SDS011;47864;52.526;19.672;2024-01-30T07:12:53;139.48;;;70.05;;
61907;SDS011;47864;52.526;19.672;2024-01-30T07:14:55;142.70;;;71.95;;
61907;SDS011;47864;52.526;19.672;2024-01-30T07:16:56;145.95;;;71.32;;
61907;SDS011;47864;52.526;19.672;2024-01-30T07:18:58;140.90;;;70.85;;
61907;SDS011;47864;52.526;19.672;2024-01-30T07:21:00;156.10;;;69.53;;
61907;SDS011;47864;52.526;19.672;2024-01-30T07:23:04;128.45;;;64.05;;
61907;SDS011;47864;52.526;19.672;2024-01-30T07:25:07;128.20;;;62.92;;
61907;SDS011;47864;52.526;19.672;2024-01-30T07:27:09;130.55;;;68.07;;
61907;SDS011;47864;52.526;19.672;2024-01-30T07:29:11;149.75;;;69.15;;
61907;SDS011;47864;52.526;19.672;2024-01-30T07:31:13;148.95;;;73.00;;
61907;SDS011;47864;52.526;19.672;2024-01-30T07:33:14;131.93;;;71.75;;
61907;SDS011;47864;52.526;19.672;2024-01-30T07:35:16;134.27;;;68.93;;
61907;SDS011;47864;52.526;19.672;2024-01-30T07:37:18;135.90;;;68.70;;
61907;SDS011;47864;52.526;19.672;2024-01-30T07:39:20;124.15;;;64.32;;
61907;SDS011;47864;52.526;19.672;2024-01-30T07:41:22;117.55;;;62.75;;
61907;SDS011;47864;52.526;19.672;2024-01-30T07:43:23;115.25;;;58.10;;
61907;SDS011;47864;52.526;19.672;2024-01-30T07:45:25;111.97;;;61.97;;
61907;SDS011;47864;52.526;19.672;2024-01-30T07:47:27;92.68;;;53.08;;
61907;SDS011;47864;52.526;19.672;2024-01-30T07:49:29;90.55;;;53.28;;
61907;SDS011;47864;52.526;19.672;2024-01-30T07:51:31;93.80;;;47.80;;
61907;SDS011;47864;52.526;19.672;2024-01-30T07:53:32;93.85;;;52.10;;
61907;SDS011;47864;52.526;19.672;2024-01-30T07:55:34;95.65;;;49.42;;
61907;SDS011;47864;52.526;19.672;2024-01-30T07:57:38;81.15;;;41.83;;
61907;SDS011;47864;52.526;19.672;2024-01-30T07:59:43;61.72;;;32.85;;
61907;SDS011;47864;52.526;19.672;2024-01-30T08:01:45;63.58;;;29.67;;
61907;SDS011;47864;52.526;19.672;2024-01-30T08:03:47;44.05;;;24.88;;
61907;SDS011;47864;52.526;19.672;2024-01-30T08:05:49;32.13;;;19.75;;
61907;SDS011;47864;52.526;19.672;2024-01-30T08:07:50;35.53;;;19.20;;
61907;SDS011;47864;52.526;19.672;2024-01-30T08:09:53;123.20;;;75.82;;
61907;SDS011;47864;52.526;19.672;2024-01-30T08:11:54;86.95;;;62.22;;
61907;SDS011;47864;52.526;19.672;2024-01-30T08:13:56;46.45;;;31.00;;
61907;SDS011;47864;52.526;19.672;2024-01-30T08:15:58;41.92;;;24.85;;
61907;SDS011;47864;52.526;19.672;2024-01-30T08:17:59;34.40;;;20.63;;
61907;SDS011;47864;52.526;19.672;2024-01-30T08:20:01;28.05;;;17.83;;
61907;SDS011;47864;52.526;19.672;2024-01-30T08:22:03;28.70;;;15.95;;
61907;SDS011;47864;52.526;19.672;2024-01-30T08:24:05;25.65;;;15.32;;
61907;SDS011;47864;52.526;19.672;2024-01-30T08:26:07;24.00;;;14.88;;
61907;SDS011;47864;52.526;19.672;2024-01-30T08:28:09;23.02;;;13.43;;
61907;SDS011;47864;52.526;19.672;2024-01-30T08:30:11;27.23;;;13.13;;
61907;SDS011;47864;52.526;19.672;2024-01-30T08:32:13;25.00;;;13.23;;
61907;SDS011;47864;52.526;19.672;2024-01-30T08:34:14;25.98;;;13.48;;
61907;SDS011;47864;52.526;19.672;2024-01-30T08:36:17;23.67;;;13.18;;
61907;SDS011;47864;52.526;19.672;2024-01-30T08:38:19;27.48;;;13.55;;
61907;SDS011;47864;52.526;19.672;2024-01-30T08:40:20;23.65;;;13.50;;
61907;SDS011;47864;52.526;19.672;2024-01-30T08:42:22;21.50;;;12.40;;
61907;SDS011;47864;52.526;19.672;2024-01-30T08:44:24;23.60;;;13.90;;
61907;SDS011;47864;52.526;19.672;2024-01-30T08:46:25;22.92;;;15.75;;
61907;SDS011;47864;52.526;19.672;2024-01-30T08:48:27;24.88;;;14.35;;
61907;SDS011;47864;52.526;19.672;2024-01-30T08:50:29;24.08;;;14.32;;
61907;SDS011;47864;52.526;19.672;2024-01-30T08:52:31;25.75;;;14.13;;
61907;SDS011;47864;52.526;19.672;2024-01-30T08:54:33;23.10;;;13.52;;
61907;SDS011;47864;52.526;19.672;2024-01-30T08:56:34;22.83;;;13.13;;
61907;SDS011;47864;52.526;19.672;2024-01-30T08:58:36;18.77;;;11.40;;
61907;SDS011;47864;52.526;19.672;2024-01-30T09:00:38;21.38;;;12.40;;
61907;SDS011;47864;52.526;19.672;2024-01-30T09:02:39;34.15;;;16.92;;
61907;SDS011;47864;52.526;19.672;2024-01-30T09:04:41;30.25;;;16.80;;
61907;SDS011;47864;52.526;19.672;2024-01-30T09:06:43;35.28;;;19.55;;
61907;SDS011;47864;52.526;19.672;2024-01-30T09:08:45;38.33;;;20.35;;
61907;SDS011;47864;52.526;19.672;2024-01-30T09:10:46;21.13;;;13.20;;
61907;SDS011;47864;52.526;19.672;2024-01-30T09:12:48;24.27;;;11.27;;
61907;SDS011;47864;52.526;19.672;2024-01-30T09:14:49;23.60;;;13.77;;
61907;SDS011;47864;52.526;19.672;2024-01-30T09:16:51;24.10;;;12.75;;
61907;SDS011;47864;52.526;19.672;2024-01-30T09:18:53;33.28;;;15.18;;
61907;SDS011;47864;52.526;19.672;2024-01-30T09:20:54;43.15;;;23.15;;
61907;SDS011;47864;52.526;19.672;2024-01-30T09:22:56;26.38;;;16.63;;
61907;SDS011;47864;52.526;19.672;2024-01-30T09:24:58;22.33;;;13.65;;
61907;SDS011;47864;52.526;19.672;2024-01-30T09:26:59;24.98;;;15.35;;
61907;SDS011;47864;52.526;19.672;2024-01-30T09:29:01;22.27;;;15.57;;
61907;SDS011;47864;52.526;19.672;2024-01-30T09:31:03;22.42;;;12.70;;
61907;SDS011;47864;52.526;19.672;2024-01-30T09:33:05;29.45;;;18.00;;
61907;SDS011;47864;52.526;19.672;2024-01-30T09:35:08;22.08;;;11.13;;
61907;SDS011;47864;52.526;19.672;2024-01-30T09:37:10;19.60;;;12.02;;
61907;SDS011;47864;52.526;19.672;2024-01-30T09:39:12;20.60;;;11.30;;
61907;SDS011;47864;52.526;19.672;2024-01-30T09:41:14;24.08;;;13.13;;
61907;SDS011;47864;52.526;19.672;2024-01-30T09:43:17;22.63;;;13.20;;
61907;SDS011;47864;52.526;19.672;2024-01-30T09:45:25;23.38;;;14.88;;
61907;SDS011;47864;52.526;19.672;2024-01-30T09:47:27;19.67;;;11.50;;
61907;SDS011;47864;52.526;19.672;2024-01-30T09:49:31;19.88;;;10.95;;
61907;SDS011;47864;52.526;19.672;2024-01-30T09:51:33;27.75;;;14.55;;
61907;SDS011;47864;52.526;19.672;2024-01-30T09:53:36;23.83;;;14.20;;
61907;SDS011;47864;52.526;19.672;2024-01-30T09:55:38;21.27;;;13.30;;
61907;SDS011;47864;52.526;19.672;2024-01-30T09:57:44;21.70;;;12.45;;
61907;SDS011;47864;52.526;19.672;2024-01-30T09:59:45;24.08;;;14.18;;
61907;SDS011;47864;52.526;19.672;2024-01-30T10:01:47;21.38;;;11.77;;
61907;SDS011;47864;52.526;19.672;2024-01-30T10:03:50;22.50;;;12.75;;
61907;SDS011;47864;52.526;19.672;2024-01-30T10:05:52;20.17;;;11.65;;
61907;SDS011;47864;52.526;19.672;2024-01-30T10:07:53;33.20;;;19.40;;
61907;SDS011;47864;52.526;19.672;2024-01-30T10:09:56;27.77;;;14.98;;
61907;SDS011;47864;52.526;19.672;2024-01-30T10:11:57;21.55;;;13.90;;
61907;SDS011;47864;52.526;19.672;2024-01-30T10:14:00;19.42;;;11.10;;
61907;SDS011;47864;52.526;19.672;2024-01-30T10:16:02;15.57;;;9.57;;
61907;SDS011;47864;52.526;19.672;2024-01-30T10:18:03;19.80;;;10.73;;
61907;SDS011;47864;52.526;19.672;2024-01-30T10:20:06;18.92;;;11.40;;
61907;SDS011;47864;52.526;19.672;2024-01-30T10:22:09;24.88;;;13.15;;
61907;SDS011;47864;52.526;19.672;2024-01-30T10:24:10;16.63;;;10.38;;
61907;SDS011;47864;52.526;19.672;2024-01-30T10:26:12;17.60;;;10.45;;
61907;SDS011;47864;52.526;19.672;2024-01-30T10:28:14;19.98;;;11.15;;
61907;SDS011;47864;52.526;19.672;2024-01-30T10:30:16;24.85;;;12.48;;
61907;SDS011;47864;52.526;19.672;2024-01-30T10:32:19;20.80;;;10.63;;
61907;SDS011;47864;52.526;19.672;2024-01-30T10:34:21;18.08;;;10.85;;
61907;SDS011;47864;52.526;19.672;2024-01-30T10:36:26;19.25;;;11.57;;
61907;SDS011;47864;52.526;19.672;2024-01-30T10:38:30;22.85;;;12.30;;
61907;SDS011;47864;52.526;19.672;2024-01-30T10:40:32;20.70;;;11.23;;
61907;SDS011;47864;52.526;19.672;2024-01-30T10:42:36;16.73;;;9.75;;
61907;SDS011;47864;52.526;19.672;2024-01-30T10:44:57;17.90;;;10.95;;
61907;SDS011;47864;52.526;19.672;2024-01-30T10:47:05;19.38;;;11.55;;
61907;SDS011;47864;52.526;19.672;2024-01-30T10:49:12;18.02;;;10.57;;
61907;SDS011;47864;52.526;19.672;2024-01-30T10:51:15;25.80;;;13.80;;
61907;SDS011;47864;52.526;19.672;2024-01-30T10:53:17;23.00;;;12.45;;
61907;SDS011;47864;52.526;19.672;2024-01-30T10:55:20;23.77;;;12.00;;
61907;SDS011;47864;52.526;19.672;2024-01-30T10:57:23;22.23;;;10.82;;
61907;SDS011;47864;52.526;19.672;2024-01-30T10:59:25;20.52;;;11.15;;
61907;SDS011;47864;52.526;19.672;2024-01-30T11:01:27;21.13;;;10.85;;
61907;SDS011;47864;52.526;19.672;2024-01-30T11:03:30;16.27;;;10.40;;
61907;SDS011;47864;52.526;19.672;2024-01-30T11:05:31;17.20;;;10.02;;
61907;SDS011;47864;52.526;19.672;2024-01-30T11:07:34;19.23;;;12.15;;
61907;SDS011;47864;52.526;19.672;2024-01-30T11:09:36;21.35;;;11.77;;
61907;SDS011;47864;52.526;19.672;2024-01-30T11:11:59;21.27;;;12.80;;
61907;SDS011;47864;52.526;19.672;2024-01-30T11:14:02;26.00;;;12.43;;
61907;SDS011;47864;52.526;19.672;2024-01-30T11:16:04;23.38;;;11.50;;
61907;SDS011;47864;52.526;19.672;2024-01-30T11:18:06;17.88;;;10.63;;
61907;SDS011;47864;52.526;19.672;2024-01-30T11:20:15;21.88;;;11.25;;
61907;SDS011;47864;52.526;19.672;2024-01-30T11:22:19;21.73;;;10.65;;
61907;SDS011;47864;52.526;19.672;2024-01-30T11:24:22;18.50;;;10.13;;
61907;SDS011;47864;52.526;19.672;2024-01-30T11:26:30;15.75;;;10.00;;
61907;SDS011;47864;52.526;19.672;2024-01-30T11:28:33;20.70;;;10.52;;
61907;SDS011;47864;52.526;19.672;2024-01-30T11:30:35;18.45;;;9.85;;
61907;SDS011;47864;52.526;19.672;2024-01-30T11:32:37;17.65;;;10.13;;
61907;SDS011;47864;52.526;19.672;2024-01-30T11:34:40;21.52;;;11.07;;
61907;SDS011;47864;52.526;19.672;2024-01-30T11:36:42;26.20;;;11.48;;
61907;SDS011;47864;52.526;19.672;2024-01-30T11:38:46;19.20;;;10.68;;
61907;SDS011;47864;52.526;19.672;2024-01-30T11:40:48;17.33;;;10.35;;
61907;SDS011;47864;52.526;19.672;2024-01-30T11:42:51;18.70;;;10.45;;